createdAt,value
2023-02-12T00:00:23.064Z,153.80
2023-02-12T00:02:51.309Z,155.98
2023-02-12T00:05:19.451Z,153.48
2023-02-12T00:07:47.437Z,151.23
2023-02-12T00:10:15.416Z,183.77
2023-02-12T00:12:43.522Z,151.32
2023-02-12T00:15:11.597Z,173.75
2023-02-12T00:17:40.940Z,160.63
2023-02-12T00:20:09.992Z,205.23
2023-02-12T00:22:38.408Z,192.88
2023-02-12T00:25:06.807Z,172.70
2023-02-12T00:27:35.729Z,186.02
2023-02-12T00:30:03.977Z,181.00
2023-02-12T00:32:31.993Z,171.82
2023-02-12T00:35:01.326Z,176.45
2023-02-12T00:37:29.675Z,154.48
2023-02-12T00:39:57.660Z,184.48
2023-02-12T00:42:26.193Z,164.38
2023-02-12T00:44:54.199Z,183.25
2023-02-12T00:47:22.216Z,186.50
2023-02-12T00:49:51.728Z,167.00
2023-02-12T00:52:21.108Z,214.73
2023-02-12T00:54:49.133Z,140.38
2023-02-12T00:57:17.631Z,138.93
2023-02-12T00:59:45.663Z,128.52
2023-02-12T01:02:13.666Z,134.27
2023-02-12T01:04:41.724Z,144.38
2023-02-12T01:07:10.074Z,142.10
2023-02-12T01:09:39.721Z,173.65
2023-02-12T01:12:08.277Z,156.95
2023-02-12T01:14:36.286Z,141.65
2023-02-12T01:17:05.055Z,122.95
2023-02-12T01:19:33.394Z,140.98
2023-02-12T01:22:01.426Z,121.47
2023-02-12T01:24:29.467Z,125.15
2023-02-12T01:27:01.104Z,102.65
2023-02-12T01:29:29.838Z,135.27
2023-02-12T01:31:58.010Z,130.13
2023-02-12T01:34:26.169Z,113.63
2023-02-12T01:36:54.156Z,123.00
2023-02-12T01:39:22.693Z,142.38
2023-02-12T01:41:50.652Z,121.47
2023-02-12T01:44:22.276Z,105.13
2023-02-12T01:46:55.660Z,111.03
2023-02-12T01:49:27.395Z,118.78
2023-02-12T01:52:00.208Z,121.80
2023-02-12T01:54:30.030Z,111.15
2023-02-12T01:56:58.252Z,107.35
2023-02-12T01:59:28.034Z,104.22
2023-02-12T02:01:56.362Z,92.07
2023-02-12T02:04:29.035Z,86.78
2023-02-12T02:06:59.292Z,105.93
2023-02-12T02:09:29.390Z,97.00
2023-02-12T02:12:14.912Z,95.30
2023-02-12T02:14:45.710Z,125.68
2023-02-12T02:17:33.757Z,122.53
2023-02-12T02:20:57.482Z,128.00
2023-02-12T02:23:48.673Z,89.90
2023-02-12T02:26:47.460Z,114.75
2023-02-12T02:29:29.978Z,90.57
2023-02-12T02:32:04.200Z,99.32
2023-02-12T02:34:41.583Z,102.35
2023-02-12T02:37:15.165Z,90.60
2023-02-12T02:39:49.083Z,109.25
2023-02-12T02:42:22.677Z,93.72
2023-02-12T02:44:54.979Z,89.30
2023-02-12T02:47:31.345Z,145.63
2023-02-12T02:50:04.640Z,173.70
2023-02-12T02:52:37.444Z,117.88
2023-02-12T02:55:32.043Z,111.25
2023-02-12T02:58:02.972Z,119.30
2023-02-12T03:00:36.842Z,103.07
2023-02-12T03:03:11.231Z,95.47
2023-02-12T03:05:44.023Z,80.50
2023-02-12T03:08:14.782Z,90.75
2023-02-12T03:10:46.946Z,87.15
2023-02-12T03:13:21.501Z,100.78
2023-02-12T03:15:56.264Z,95.07
2023-02-12T03:18:30.003Z,118.63
2023-02-12T03:21:01.973Z,122.15
2023-02-12T03:23:35.138Z,102.65
2023-02-12T03:26:08.851Z,110.25
2023-02-12T03:28:39.241Z,111.55
2023-02-12T03:31:14.405Z,92.88
2023-02-12T03:33:55.052Z,89.60
2023-02-12T03:36:37.665Z,90.03
2023-02-12T03:39:13.039Z,123.65
2023-02-12T03:41:46.601Z,122.97
2023-02-12T03:44:24.096Z,111.85
2023-02-12T03:47:00.258Z,122.13
2023-02-12T03:49:33.471Z,167.07
2023-02-12T03:52:01.573Z,109.13
2023-02-12T03:54:29.711Z,116.85
2023-02-12T03:57:02.684Z,127.15
2023-02-12T03:59:30.966Z,103.88
2023-02-12T04:02:00.612Z,112.47
2023-02-12T04:04:30.872Z,85.25
2023-02-12T04:06:59.604Z,96.30
2023-02-12T04:09:29.202Z,88.50
2023-02-12T04:12:10.425Z,83.57
2023-02-12T04:14:47.216Z,103.60
2023-02-12T04:17:23.144Z,113.38
2023-02-12T04:20:03.652Z,115.68
2023-02-12T04:22:44.892Z,95.32
2023-02-12T04:25:22.494Z,78.88
2023-02-12T04:27:58.510Z,85.28
2023-02-12T04:30:32.767Z,93.95
2023-02-12T04:33:03.587Z,83.50
2023-02-12T04:35:36.954Z,76.43
2023-02-12T04:38:11.162Z,107.65
2023-02-12T04:40:41.758Z,94.47
2023-02-12T04:43:10.248Z,100.63
2023-02-12T04:45:39.189Z,89.93
2023-02-12T04:48:07.546Z,98.38
2023-02-12T04:50:41.344Z,77.50
2023-02-12T04:53:10.759Z,73.80
2023-02-12T04:55:39.029Z,71.25
2023-02-12T04:58:07.314Z,84.03
2023-02-12T05:00:35.561Z,82.78
2023-02-12T05:03:03.803Z,80.03
2023-02-12T05:05:31.918Z,81.95
2023-02-12T05:08:01.875Z,93.32
2023-02-12T05:10:30.125Z,101.53
2023-02-12T05:12:58.129Z,114.32
2023-02-12T05:15:26.107Z,98.55
2023-02-12T05:17:54.137Z,98.07
2023-02-12T05:20:22.188Z,71.45
2023-02-12T05:22:53.501Z,83.95
2023-02-12T05:25:23.057Z,65.32
2023-02-12T05:27:51.100Z,86.03
2023-02-12T05:30:19.349Z,93.65
2023-02-12T05:32:47.351Z,79.13
2023-02-12T05:35:15.509Z,98.78
2023-02-12T05:37:43.557Z,79.43
2023-02-12T05:40:12.552Z,87.88
2023-02-12T05:42:42.009Z,76.60
2023-02-12T05:45:10.551Z,88.68
2023-02-12T05:47:39.002Z,82.75
2023-02-12T05:50:08.496Z,78.32
2023-02-12T05:52:36.515Z,82.00
2023-02-12T05:55:04.969Z,103.63
2023-02-12T05:57:33.108Z,60.15
2023-02-12T06:00:02.877Z,88.85
2023-02-12T06:02:40.957Z,74.97
2023-02-12T06:05:09.326Z,68.22
2023-02-12T06:07:37.362Z,95.80
2023-02-12T06:10:06.098Z,74.90
2023-02-12T06:12:34.429Z,82.22
2023-02-12T06:15:04.189Z,92.35
2023-02-12T06:17:33.028Z,74.90
2023-02-12T06:20:01.175Z,81.95
2023-02-12T06:22:29.446Z,141.90
2023-02-12T06:24:57.465Z,100.72
2023-02-12T06:27:25.474Z,92.97
2023-02-12T06:29:53.455Z,89.80
2023-02-12T06:32:23.436Z,73.22
2023-02-12T06:34:51.472Z,84.40
2023-02-12T06:37:19.459Z,98.65
2023-02-12T06:39:47.706Z,105.82
2023-02-12T06:42:15.735Z,93.63
2023-02-12T06:44:43.726Z,86.05
2023-02-12T06:47:11.712Z,90.65
2023-02-12T06:49:41.079Z,90.78
2023-02-12T06:52:09.111Z,82.25
2023-02-12T06:54:37.153Z,91.13
2023-02-12T06:57:05.400Z,77.13
2023-02-12T06:59:33.920Z,81.25
2023-02-12T07:02:01.914Z,92.22
2023-02-12T07:04:30.035Z,75.65
2023-02-12T07:06:59.429Z,70.80
2023-02-12T07:09:27.616Z,72.50
2023-02-12T07:11:56.799Z,78.70
2023-02-12T07:14:24.862Z,74.75
2023-02-12T07:16:53.817Z,79.82
2023-02-12T07:19:23.560Z,79.47
2023-02-12T07:21:51.687Z,64.88
2023-02-12T07:24:21.071Z,99.97
2023-02-12T07:26:49.246Z,82.45
2023-02-12T07:29:17.383Z,89.15
2023-02-12T07:31:45.406Z,121.15
2023-02-12T07:34:13.569Z,83.82
2023-02-12T07:36:42.116Z,82.65
2023-02-12T07:39:13.126Z,109.38
2023-02-12T07:41:42.520Z,115.35
2023-02-12T07:44:13.107Z,106.75
2023-02-12T07:46:45.577Z,98.65
2023-02-12T07:49:17.568Z,109.05
2023-02-12T07:51:46.031Z,112.28
2023-02-12T07:54:14.459Z,107.45
2023-02-12T07:56:46.778Z,95.53
2023-02-12T07:59:17.973Z,97.32
2023-02-12T08:01:48.353Z,132.98
2023-02-12T08:04:19.075Z,109.88
2023-02-12T08:06:49.402Z,158.32
2023-02-12T08:09:20.497Z,114.95
2023-02-12T08:11:50.047Z,116.75
2023-02-12T08:14:20.398Z,105.22
2023-02-12T08:16:49.879Z,140.18
2023-02-12T08:19:22.518Z,131.43
2023-02-12T08:21:53.651Z,124.72
2023-02-12T08:24:22.823Z,160.13
2023-02-12T08:26:52.573Z,123.93
2023-02-12T08:29:22.411Z,101.32
2023-02-12T08:31:51.595Z,133.15
2023-02-12T08:34:21.264Z,94.13
2023-02-12T08:36:50.702Z,92.40
2023-02-12T08:39:19.823Z,100.60
2023-02-12T08:41:48.724Z,98.00
2023-02-12T08:44:19.549Z,97.13
2023-02-12T08:46:50.118Z,99.03
2023-02-12T08:49:20.214Z,128.00
2023-02-12T08:51:49.833Z,120.53
2023-02-12T08:54:19.106Z,96.35
2023-02-12T08:56:47.523Z,101.43
2023-02-12T08:59:17.766Z,80.78
2023-02-12T09:01:45.988Z,83.13
2023-02-12T09:04:17.717Z,70.10
2023-02-12T09:06:47.111Z,72.55
2023-02-12T09:09:15.534Z,65.35
2023-02-12T09:11:44.666Z,64.60
2023-02-12T09:14:14.680Z,62.80
2023-02-12T09:16:44.436Z,60.22
2023-02-12T09:19:15.028Z,64.07
2023-02-12T09:21:44.452Z,56.83
2023-02-12T09:24:12.430Z,54.13
2023-02-12T09:26:41.130Z,52.00
2023-02-12T09:29:31.762Z,43.90
2023-02-12T09:32:02.603Z,40.63
2023-02-12T09:34:30.646Z,40.17
2023-02-12T09:36:58.665Z,40.30
2023-02-12T09:39:28.788Z,36.08
2023-02-12T09:42:20.394Z,36.22
2023-02-12T09:44:58.018Z,34.33
2023-02-12T09:47:34.925Z,30.55
2023-02-12T09:50:14.937Z,21.88
2023-02-12T09:52:43.213Z,14.48
2023-02-12T09:55:15.500Z,19.92
2023-02-12T09:57:44.411Z,19.63
2023-02-12T10:00:17.440Z,32.55
2023-02-12T10:02:47.570Z,24.25
2023-02-12T10:05:19.663Z,24.23
2023-02-12T10:08:07.268Z,20.95
2023-02-12T10:10:48.227Z,20.90
2023-02-12T10:13:27.453Z,20.05
2023-02-12T10:16:03.593Z,21.25
2023-02-12T10:18:55.676Z,22.27
2023-02-12T10:21:38.408Z,25.42
2023-02-12T10:24:18.008Z,23.67
2023-02-12T10:26:49.507Z,30.30
2023-02-12T10:29:21.126Z,28.35
2023-02-12T10:31:54.059Z,31.08
2023-02-12T10:34:26.637Z,28.20
2023-02-12T10:36:59.996Z,27.25
2023-02-12T10:39:33.097Z,29.50
2023-02-12T10:42:05.284Z,24.65
2023-02-12T10:44:33.402Z,27.23
2023-02-12T10:47:02.101Z,24.90
2023-02-12T10:49:32.497Z,23.17
2023-02-12T10:52:09.398Z,22.05
2023-02-12T10:54:43.083Z,21.95
2023-02-12T10:57:21.980Z,19.70
2023-02-12T10:59:53.032Z,18.08
2023-02-12T11:02:31.553Z,18.80
2023-02-12T11:05:16.673Z,18.90
2023-02-12T11:07:50.261Z,21.08
2023-02-12T11:10:22.229Z,21.00
2023-02-12T11:12:50.491Z,17.52
2023-02-12T11:15:20.631Z,18.52
2023-02-12T11:17:58.714Z,19.45
2023-02-12T11:20:29.979Z,20.58
2023-02-12T11:23:00.773Z,20.27
2023-02-12T11:25:31.371Z,22.80
2023-02-12T11:28:07.455Z,17.42
2023-02-12T11:30:36.588Z,19.83
2023-02-12T11:33:18.736Z,20.40
2023-02-12T11:35:53.502Z,19.45
2023-02-12T11:38:28.362Z,20.02
2023-02-12T11:40:59.989Z,16.48
2023-02-12T11:43:31.065Z,17.92
2023-02-12T11:46:01.268Z,17.02
2023-02-12T11:48:34.625Z,14.52
2023-02-12T11:51:06.515Z,14.55
2023-02-12T11:53:37.829Z,14.25
2023-02-12T11:56:08.993Z,13.43
2023-02-12T11:58:37.365Z,13.77
2023-02-12T12:01:13.490Z,12.45
2023-02-12T12:03:50.427Z,14.50
2023-02-12T12:06:30.623Z,12.15
2023-02-12T12:09:04.875Z,13.88
2023-02-12T12:11:45.079Z,19.83
2023-02-12T12:14:19.107Z,17.85
2023-02-12T12:17:10.402Z,16.55
2023-02-12T12:19:54.642Z,16.35
2023-02-12T12:22:47.875Z,14.18
2023-02-12T12:25:25.764Z,8.60
2023-02-12T12:28:05.674Z,9.23
2023-02-12T12:30:55.653Z,13.65
2023-02-12T12:33:33.768Z,13.23
2023-02-12T12:36:30.707Z,10.00
2023-02-12T12:39:08.392Z,9.43
2023-02-12T12:41:43.358Z,10.15
2023-02-12T12:44:28.464Z,12.65
2023-02-12T12:47:11.652Z,11.32
2023-02-12T12:49:49.579Z,9.63
2023-02-12T12:52:40.432Z,9.90
2023-02-12T12:55:33.993Z,10.43
2023-02-12T12:58:13.370Z,8.73
2023-02-12T13:01:07.139Z,9.15
2023-02-12T13:04:14.398Z,13.05
2023-02-12T13:07:10.182Z,9.52
2023-02-12T13:09:48.015Z,9.80
2023-02-12T13:12:49.956Z,10.32
2023-02-12T13:15:27.643Z,11.82
2023-02-12T13:18:00.393Z,11.75
2023-02-12T13:20:37.190Z,9.20
2023-02-12T13:23:11.780Z,9.00
2023-02-12T13:25:46.870Z,8.68
2023-02-12T13:28:22.337Z,9.00
2023-02-12T13:30:53.269Z,8.07
2023-02-12T13:33:24.264Z,10.63
2023-02-12T13:35:56.142Z,8.90
2023-02-12T13:38:29.894Z,8.80
2023-02-12T13:41:02.943Z,9.13
2023-02-12T13:43:50.038Z,9.43
2023-02-12T13:46:26.892Z,9.65
2023-02-12T13:49:04.661Z,8.95
2023-02-12T13:51:41.853Z,7.35
2023-02-12T13:54:48.163Z,9.10
2023-02-12T13:57:19.653Z,8.15
2023-02-12T13:59:53.591Z,7.97
2023-02-12T14:02:29.322Z,8.02
2023-02-12T14:04:59.867Z,9.05
2023-02-12T14:07:44.076Z,9.80
2023-02-12T14:10:26.179Z,10.65
2023-02-12T14:12:56.083Z,7.85
2023-02-12T14:15:33.336Z,7.57
2023-02-12T14:18:24.377Z,7.45
2023-02-12T14:21:40.407Z,5.97
2023-02-12T14:24:51.687Z,5.65
2023-02-12T14:27:42.618Z,6.65
2023-02-12T14:30:29.753Z,5.78
2023-02-12T14:33:00.927Z,4.82
2023-02-12T14:35:36.247Z,4.32
2023-02-12T14:38:25.274Z,5.32
2023-02-12T14:41:34.178Z,5.28
2023-02-12T14:44:41.910Z,4.50
2023-02-12T14:47:29.000Z,4.43
2023-02-12T14:50:01.511Z,4.95
2023-02-12T14:52:33.242Z,6.03
2023-02-12T14:55:04.264Z,5.25
2023-02-12T14:57:36.043Z,7.10
2023-02-12T15:00:21.165Z,5.80
2023-02-12T15:02:54.383Z,5.57
2023-02-12T15:05:26.275Z,5.07
2023-02-12T15:07:58.596Z,4.55
2023-02-12T15:10:32.939Z,3.55
2023-02-12T15:13:19.157Z,2.45
2023-02-12T15:15:52.116Z,3.15
2023-02-12T15:18:26.462Z,3.10
2023-02-12T15:21:01.093Z,2.65
2023-02-12T15:23:35.331Z,3.10
2023-02-12T15:26:05.105Z,3.33
2023-02-12T15:28:37.523Z,6.78
2023-02-12T15:31:10.378Z,3.67
2023-02-12T15:33:42.794Z,3.97
2023-02-12T15:36:16.811Z,4.03
2023-02-12T15:38:45.719Z,2.78
2023-02-12T15:41:27.533Z,3.55
2023-02-12T15:43:57.486Z,4.75
2023-02-12T15:46:25.838Z,3.10
2023-02-12T15:48:55.404Z,4.43
2023-02-12T15:51:29.851Z,3.03
2023-02-12T15:54:01.393Z,2.30
2023-02-12T15:56:30.215Z,2.80
2023-02-12T15:59:01.544Z,2.60
2023-02-12T16:01:32.232Z,3.67
2023-02-12T16:04:02.699Z,3.38
2023-02-12T16:06:35.166Z,2.85
2023-02-12T16:09:05.832Z,2.67
2023-02-12T16:11:35.334Z,3.13
2023-02-12T16:14:08.638Z,4.90
2023-02-12T16:16:44.942Z,2.90
2023-02-12T16:19:20.330Z,3.78
2023-02-12T16:21:51.624Z,3.20
2023-02-12T16:24:27.450Z,3.58
2023-02-12T16:26:56.636Z,3.15
2023-02-12T16:29:26.178Z,3.00
2023-02-12T16:31:57.499Z,4.88
2023-02-12T16:34:30.493Z,3.35
2023-02-12T16:36:58.951Z,2.90
2023-02-12T16:40:21.362Z,3.65
2023-02-12T16:43:01.787Z,3.28
2023-02-12T16:45:43.743Z,3.40
2023-02-12T16:48:25.029Z,3.05
2023-02-12T16:50:56.142Z,4.25
2023-02-12T16:53:43.424Z,2.42
2023-02-12T16:56:20.932Z,4.03
2023-02-12T16:58:51.075Z,3.40
2023-02-12T17:01:23.648Z,2.72
2023-02-12T17:03:52.324Z,4.03
2023-02-12T17:06:22.171Z,3.85
2023-02-12T17:08:50.376Z,3.90
2023-02-12T17:11:19.009Z,3.92
2023-02-12T17:13:49.177Z,7.68
2023-02-12T17:16:29.968Z,4.88
2023-02-12T17:19:00.729Z,7.47
2023-02-12T17:21:30.624Z,6.63
2023-02-12T17:23:58.826Z,4.90
2023-02-12T17:26:28.740Z,6.47
2023-02-12T17:29:05.032Z,5.43
2023-02-12T17:31:33.349Z,4.97
2023-02-12T17:34:03.185Z,5.82
2023-02-12T17:36:31.597Z,6.78
2023-02-12T17:39:00.061Z,5.05
2023-02-12T17:41:28.283Z,6.50
2023-02-12T17:43:56.314Z,7.50
2023-02-12T17:46:26.623Z,8.95
2023-02-12T17:48:54.732Z,7.88
2023-02-12T17:51:24.735Z,8.10
2023-02-12T17:53:52.984Z,7.10
2023-02-12T17:56:25.476Z,7.03
2023-02-12T17:58:54.420Z,7.97
2023-02-12T18:01:24.217Z,9.13
2023-02-12T18:03:54.595Z,8.18
2023-02-12T18:06:27.036Z,9.63
2023-02-12T18:08:55.537Z,8.50
2023-02-12T18:11:23.623Z,10.38
2023-02-12T18:13:54.299Z,8.40
2023-02-12T18:16:23.528Z,8.43
2023-02-12T18:18:51.585Z,9.10
2023-02-12T18:21:20.001Z,8.52
2023-02-12T18:23:49.570Z,10.52
2023-02-12T18:26:19.432Z,9.40
2023-02-12T18:28:47.523Z,10.85
2023-02-12T18:31:15.880Z,12.60
2023-02-12T18:33:44.044Z,12.73
2023-02-12T18:36:15.237Z,16.20
2023-02-12T18:38:44.726Z,14.98
2023-02-12T18:41:15.594Z,9.10
2023-02-12T18:43:45.112Z,11.38
2023-02-12T18:46:14.797Z,12.20
2023-02-12T18:48:43.491Z,15.38
2023-02-12T18:51:14.815Z,12.88
2023-02-12T18:53:42.933Z,12.57
2023-02-12T18:56:12.438Z,13.02
2023-02-12T18:58:42.080Z,14.10
2023-02-12T19:01:14.564Z,16.30
2023-02-12T19:03:42.833Z,15.57
2023-02-12T19:06:11.360Z,14.07
2023-02-12T19:08:39.490Z,15.77
2023-02-12T19:11:08.369Z,17.77
2023-02-12T19:13:36.699Z,15.90
2023-02-12T19:16:10.196Z,17.80
2023-02-12T19:18:38.298Z,18.40
2023-02-12T19:21:07.621Z,17.60
2023-02-12T19:23:35.879Z,15.32
2023-02-12T19:26:05.323Z,14.07
2023-02-12T19:28:34.349Z,15.15
2023-02-12T19:31:14.173Z,15.10
2023-02-12T19:33:44.426Z,12.73
2023-02-12T19:36:14.966Z,13.52
2023-02-12T19:38:43.038Z,13.10
2023-02-12T19:41:14.063Z,14.40
2023-02-12T19:43:42.680Z,10.38
2023-02-12T19:46:16.011Z,12.32
2023-02-12T19:48:45.122Z,10.73
2023-02-12T19:51:15.232Z,11.05
2023-02-12T19:53:43.433Z,12.23
2023-02-12T19:56:11.701Z,11.82
2023-02-12T19:58:40.128Z,11.38
2023-02-12T20:01:11.585Z,12.85
2023-02-12T20:03:40.077Z,11.25
2023-02-12T20:06:10.653Z,14.30
2023-02-12T20:08:39.778Z,12.13
2023-02-12T20:11:08.190Z,14.07
2023-02-12T20:13:36.710Z,14.98
2023-02-12T20:16:05.416Z,11.25
2023-02-12T20:18:35.041Z,13.88
2023-02-12T20:21:08.314Z,13.77
2023-02-12T20:23:36.428Z,12.23
2023-02-12T20:26:05.808Z,11.20
2023-02-12T20:28:35.027Z,12.18
2023-02-12T20:31:09.458Z,9.90
2023-02-12T20:33:39.419Z,14.93
2023-02-12T20:36:08.883Z,10.65
2023-02-12T20:38:38.257Z,13.77
2023-02-12T20:41:08.086Z,12.82
2023-02-12T20:43:37.919Z,12.68
2023-02-12T20:46:07.580Z,11.65
2023-02-12T20:48:36.638Z,16.10
2023-02-12T20:51:07.990Z,13.38
2023-02-12T20:53:37.022Z,16.60
2023-02-12T20:56:07.690Z,18.85
2023-02-12T20:58:35.842Z,17.75
2023-02-12T21:01:05.599Z,21.65
2023-02-12T21:03:33.681Z,13.60
2023-02-12T21:06:02.424Z,12.73
2023-02-12T21:08:32.662Z,13.73
2023-02-12T21:11:01.793Z,10.60
2023-02-12T21:13:30.162Z,12.18
2023-02-12T21:16:05.661Z,14.40
2023-02-12T21:18:33.788Z,10.40
2023-02-12T21:21:03.127Z,9.30
2023-02-12T21:23:33.770Z,10.10
2023-02-12T21:26:03.726Z,9.55
2023-02-12T21:28:33.289Z,9.63
2023-02-12T21:31:07.959Z,10.57
2023-02-12T21:33:36.072Z,10.32
2023-02-12T21:36:06.353Z,10.07
2023-02-12T21:38:38.790Z,13.60
2023-02-12T21:41:08.758Z,11.82
2023-02-12T21:43:37.666Z,8.85
2023-02-12T21:46:06.615Z,7.47
2023-02-12T21:48:35.561Z,8.40
2023-02-12T21:51:03.965Z,7.35
2023-02-12T21:53:32.218Z,8.02
2023-02-12T21:56:04.971Z,7.60
2023-02-12T21:58:33.326Z,8.88
2023-02-12T22:01:07.454Z,7.00
2023-02-12T22:03:35.593Z,9.27
2023-02-12T22:06:05.131Z,8.02
2023-02-12T22:08:33.714Z,6.18
2023-02-12T22:11:04.756Z,7.70
2023-02-12T22:13:33.284Z,8.50
2023-02-12T22:16:09.596Z,7.00
2023-02-12T22:18:38.159Z,9.60
2023-02-12T22:21:08.769Z,7.90
2023-02-12T22:23:38.915Z,7.63
2023-02-12T22:26:10.765Z,6.93
2023-02-12T22:28:41.897Z,7.28
2023-02-12T22:31:11.050Z,7.85
2023-02-12T22:33:39.256Z,7.07
2023-02-12T22:36:09.906Z,8.32
2023-02-12T22:38:39.308Z,10.32
2023-02-12T22:41:10.013Z,9.68
2023-02-12T22:43:39.658Z,10.50
2023-02-12T22:46:08.333Z,8.43
2023-02-12T22:48:36.665Z,9.10
2023-02-12T22:51:10.099Z,7.68
2023-02-12T22:53:38.418Z,6.40
2023-02-12T22:56:09.556Z,7.25
2023-02-12T22:58:38.503Z,7.45
2023-02-12T23:01:07.629Z,5.20
2023-02-12T23:03:37.281Z,4.93
2023-02-12T23:06:07.533Z,4.95
2023-02-12T23:08:36.378Z,5.18
2023-02-12T23:11:07.087Z,4.70
2023-02-12T23:13:37.691Z,5.50
2023-02-12T23:16:06.665Z,4.68
2023-02-12T23:18:35.048Z,6.93
2023-02-12T23:21:03.854Z,5.15
2023-02-12T23:23:31.844Z,6.47
2023-02-12T23:25:59.932Z,7.20
2023-02-12T23:28:28.046Z,5.60
2023-02-12T23:30:58.005Z,5.45
2023-02-12T23:33:26.419Z,8.02
2023-02-12T23:35:54.447Z,9.30
2023-02-12T23:38:22.631Z,5.45
2023-02-12T23:40:50.711Z,5.97
2023-02-12T23:43:18.781Z,9.35
2023-02-12T23:45:47.251Z,7.25
2023-02-12T23:48:16.781Z,7.05
2023-02-12T23:50:49.429Z,9.15
2023-02-12T23:53:18.916Z,7.20
2023-02-12T23:55:47.219Z,6.82
2023-02-12T23:58:15.306Z,8.68
